Terminal Aerodrome Forecast
Issued by NWS Northern Indiana

Home | Current Version | Previous Version | Text Only | Print | Product List | Glossary On
Versions: 1 2 3 4 5 6 7 8 9 10 11 12 13 14 15 16
000
FTUS43 KIWX 171120
TAFFWA
TAF
KFWA 171120Z 1712/1812 23006KT 6SM -SHSN BKN005 OVC050
     FM171300 27007KT P6SM SCT008 BKN050
      TEMPO 1713/1716 5SM BR BKN008
     FM171800 25013KT P6SM SCT150=

USA.gov is the U.S. government's official web portal to all federal, state and local government web resources and services.